createdAt,value
2017-09-16T00:00:24.398Z,9.2
2017-09-16T00:01:26.841Z,9.2
2017-09-16T00:02:29.273Z,9.2
2017-09-16T00:03:31.722Z,9.2
2017-09-16T00:04:34.167Z,9.1
2017-09-16T00:05:36.615Z,9.1
2017-09-16T00:06:39.066Z,9.1
2017-09-16T00:07:41.494Z,9.1
2017-09-16T00:08:43.934Z,9.1
2017-09-16T00:09:46.381Z,9.1
2017-09-16T00:11:20.906Z,9
2017-09-16T00:12:23.306Z,9
2017-09-16T00:13:25.690Z,9.1
2017-09-16T00:14:28.086Z,9
2017-09-16T00:15:30.476Z,9
2017-09-16T00:16:32.857Z,9
2017-09-16T00:17:35.263Z,9
2017-09-16T00:18:37.650Z,9
2017-09-16T00:19:40.026Z,9
2017-09-16T00:20:42.420Z,9
2017-09-16T00:21:44.806Z,9
2017-09-16T00:22:47.197Z,9
2017-09-16T00:23:49.587Z,9
2017-09-16T00:24:51.960Z,9
2017-09-16T00:25:54.355Z,9
2017-09-16T00:26:57.093Z,9
2017-09-16T00:27:59.482Z,9
2017-09-16T00:29:01.904Z,8.9
2017-09-16T00:30:04.316Z,8.9
2017-09-16T00:31:06.702Z,8.9
2017-09-16T00:32:09.467Z,8.9
2017-09-16T00:33:12.193Z,8.9
2017-09-16T00:34:14.573Z,8.9
2017-09-16T00:35:16.966Z,8.9
2017-09-16T00:36:19.347Z,8.9
2017-09-16T00:37:21.741Z,8.9
2017-09-16T00:38:24.146Z,8.9
2017-09-16T00:39:26.516Z,8.9
2017-09-16T00:40:29.241Z,8.9
2017-09-16T00:41:31.625Z,8.9
2017-09-16T00:42:34.013Z,8.9
2017-09-16T00:43:36.400Z,8.9
2017-09-16T00:44:38.789Z,9
2017-09-16T00:45:41.178Z,9
2017-09-16T00:46:43.569Z,8.9
2017-09-16T00:47:45.956Z,8.9
2017-09-16T00:48:48.341Z,8.9
2017-09-16T00:49:50.726Z,8.9
2017-09-16T00:50:53.116Z,8.9
2017-09-16T00:51:55.501Z,8.9
2017-09-16T00:52:57.894Z,8.9
2017-09-16T00:54:00.283Z,8.9
2017-09-16T00:55:02.671Z,8.8
2017-09-16T00:56:05.058Z,8.8
2017-09-16T00:57:07.787Z,8.8
2017-09-16T00:58:10.181Z,8.8
2017-09-16T00:59:12.900Z,8.8
2017-09-16T01:00:15.290Z,8.8
2017-09-16T01:01:18.012Z,8.8
2017-09-16T01:02:20.751Z,8.8
2017-09-16T01:03:23.143Z,8.8
2017-09-16T01:04:25.533Z,8.8
2017-09-16T01:05:27.921Z,8.8
2017-09-16T01:06:30.307Z,8.8
2017-09-16T01:07:32.696Z,8.8
2017-09-16T01:08:35.416Z,8.8
2017-09-16T01:09:38.135Z,8.8
2017-09-16T01:10:40.530Z,8.7
2017-09-16T01:11:42.911Z,8.7
2017-09-16T01:12:45.310Z,8.7
2017-09-16T01:13:47.703Z,8.8
2017-09-16T01:14:50.091Z,8.7
2017-09-16T01:15:52.486Z,8.7
2017-09-16T01:16:55.228Z,8.7
2017-09-16T01:17:57.608Z,8.7
2017-09-16T01:18:59.996Z,8.7
2017-09-16T01:20:02.746Z,8.7
2017-09-16T01:21:05.133Z,8.7
2017-09-16T01:22:07.530Z,8.7
2017-09-16T01:23:09.915Z,8.7
2017-09-16T01:24:12.290Z,8.8
2017-09-16T01:25:14.688Z,8.8
2017-09-16T01:26:17.410Z,8.7
2017-09-16T01:27:19.796Z,8.7
2017-09-16T01:28:22.189Z,8.7
2017-09-16T01:29:24.572Z,8.7
2017-09-16T01:30:27.316Z,8.7
2017-09-16T01:31:29.713Z,8.7
2017-09-16T01:32:32.099Z,8.7
2017-09-16T01:33:34.486Z,8.7
2017-09-16T01:34:36.869Z,8.7
2017-09-16T01:35:39.268Z,8.7
2017-09-16T01:36:41.652Z,8.7
2017-09-16T01:37:44.036Z,8.7
2017-09-16T01:38:46.432Z,8.7
2017-09-16T01:39:48.821Z,8.7
2017-09-16T01:40:51.204Z,8.7
2017-09-16T01:41:53.603Z,8.7
2017-09-16T01:42:55.982Z,8.7
2017-09-16T01:43:58.375Z,8.7
2017-09-16T01:45:00.770Z,8.7
2017-09-16T01:46:03.158Z,8.7
2017-09-16T01:47:05.545Z,8.7
2017-09-16T01:48:07.932Z,8.7
2017-09-16T01:49:10.448Z,8.7
2017-09-16T01:50:12.835Z,8.7
2017-09-16T01:51:15.222Z,8.6
2017-09-16T01:52:17.951Z,8.6
2017-09-16T01:53:20.338Z,8.6
2017-09-16T01:54:23.072Z,8.7
2017-09-16T01:55:26.128Z,8.7
2017-09-16T01:56:28.527Z,8.7
2017-09-16T01:57:30.906Z,8.7
2017-09-16T01:58:33.297Z,8.7
2017-09-16T01:59:35.686Z,8.7
2017-09-16T02:00:38.077Z,8.7
2017-09-16T02:01:40.462Z,8.7
2017-09-16T02:02:42.846Z,8.6
2017-09-16T02:03:45.236Z,8.6
2017-09-16T02:04:47.624Z,8.6
2017-09-16T02:05:50.351Z,8.6
2017-09-16T02:06:52.737Z,8.6
2017-09-16T02:07:55.129Z,8.6
2017-09-16T02:08:57.873Z,8.6
2017-09-16T02:10:00.262Z,8.6
2017-09-16T02:11:02.648Z,8.6
2017-09-16T02:12:05.387Z,8.6
2017-09-16T02:13:07.777Z,8.6
2017-09-16T02:14:10.164Z,8.6
2017-09-16T02:15:12.547Z,8.6
2017-09-16T02:16:14.925Z,8.6
2017-09-16T02:17:17.315Z,8.6
2017-09-16T02:18:19.700Z,8.6
2017-09-16T02:19:22.084Z,8.6
2017-09-16T02:20:24.480Z,8.6
2017-09-16T02:21:26.857Z,8.5
2017-09-16T02:22:29.242Z,8.5
2017-09-16T02:23:31.635Z,8.5
2017-09-16T02:24:34.019Z,8.5
2017-09-16T02:25:36.400Z,8.5
2017-09-16T02:26:38.789Z,8.5
2017-09-16T02:27:41.174Z,8.5
2017-09-16T02:28:43.568Z,8.5
2017-09-16T02:29:45.957Z,8.5
2017-09-16T02:30:48.333Z,8.5
2017-09-16T02:31:50.726Z,8.5
2017-09-16T02:32:53.114Z,8.5
2017-09-16T02:33:55.501Z,8.4
2017-09-16T02:34:57.883Z,8.4
2017-09-16T02:36:00.273Z,8.5
2017-09-16T02:37:02.662Z,8.4
2017-09-16T02:38:05.050Z,8.4
2017-09-16T02:39:07.437Z,8.4
2017-09-16T02:40:09.839Z,8.4
2017-09-16T02:41:12.216Z,8.4
2017-09-16T02:42:14.955Z,8.4
2017-09-16T02:43:17.672Z,8.4
2017-09-16T02:44:20.054Z,8.4
2017-09-16T02:45:22.444Z,8.4
2017-09-16T02:46:24.831Z,8.3
2017-09-16T02:47:27.552Z,8.4
2017-09-16T02:48:29.946Z,8.4
2017-09-16T02:49:32.330Z,8.3
2017-09-16T02:50:34.720Z,8.3
2017-09-16T02:51:37.111Z,8.3
2017-09-16T02:52:39.493Z,8.3
2017-09-16T02:53:41.876Z,8.3
2017-09-16T02:54:44.273Z,8.3
2017-09-16T02:55:46.657Z,8.3
2017-09-16T02:56:49.055Z,8.3
2017-09-16T02:57:51.445Z,8.3
2017-09-16T02:58:53.832Z,8.3
2017-09-16T02:59:56.212Z,8.3
2017-09-16T03:00:58.602Z,8.3
2017-09-16T03:02:00.988Z,8.3
2017-09-16T03:03:03.378Z,8.3
2017-09-16T03:04:06.115Z,8.2
2017-09-16T03:05:08.501Z,8.2
2017-09-16T03:06:10.873Z,8.2
2017-09-16T03:07:13.268Z,8.2
2017-09-16T03:08:15.657Z,8.2
2017-09-16T03:09:18.392Z,8.2
2017-09-16T03:10:20.781Z,8.2
2017-09-16T03:11:23.164Z,8.2
2017-09-16T03:12:25.550Z,8.2
2017-09-16T03:13:27.947Z,8.1
2017-09-16T03:14:30.333Z,8.1
2017-09-16T03:15:32.718Z,8.2
2017-09-16T03:16:35.105Z,8.2
2017-09-16T03:17:37.833Z,8.1
2017-09-16T03:18:40.223Z,8.1
2017-09-16T03:19:42.610Z,8.1
2017-09-16T03:20:45.326Z,8.1
2017-09-16T03:21:47.716Z,8.1
2017-09-16T03:22:50.101Z,8.1
2017-09-16T03:23:52.495Z,8.1
2017-09-16T03:24:54.879Z,8.1
2017-09-16T03:25:57.269Z,8.1
2017-09-16T03:26:59.657Z,8.1
2017-09-16T03:28:02.059Z,8.1
2017-09-16T03:29:04.441Z,8.1
2017-09-16T03:30:07.513Z,8.1
2017-09-16T03:31:10.238Z,8.1
2017-09-16T03:32:12.621Z,8.1
2017-09-16T03:33:15.013Z,8.1
2017-09-16T03:34:17.398Z,8.1
2017-09-16T03:35:19.783Z,8.1
2017-09-16T03:36:22.174Z,8.1
2017-09-16T03:37:24.552Z,8.1
2017-09-16T03:38:26.943Z,8.1
2017-09-16T03:39:29.333Z,8.1
2017-09-16T03:40:31.718Z,8.1
2017-09-16T03:41:34.441Z,8
2017-09-16T03:42:36.830Z,8
2017-09-16T03:43:39.218Z,8
2017-09-16T03:44:41.609Z,8
2017-09-16T03:45:44.000Z,8
2017-09-16T03:46:46.387Z,8
2017-09-16T03:47:48.769Z,8
2017-09-16T03:48:51.180Z,8
2017-09-16T03:49:53.569Z,8
2017-09-16T03:50:55.957Z,8
2017-09-16T03:51:58.339Z,8
2017-09-16T03:53:00.725Z,8
2017-09-16T03:54:03.467Z,8
2017-09-16T03:55:05.851Z,8
2017-09-16T03:56:08.237Z,8
2017-09-16T03:57:10.625Z,8
2017-09-16T03:58:13.014Z,7.9
2017-09-16T03:59:15.401Z,7.9
2017-09-16T04:00:17.787Z,7.9
2017-09-16T04:01:20.169Z,7.9
2017-09-16T04:02:22.557Z,7.9
2017-09-16T04:03:24.945Z,7.9
2017-09-16T04:04:27.343Z,7.9
2017-09-16T04:05:29.721Z,7.9
2017-09-16T04:06:32.110Z,7.9
2017-09-16T04:07:34.499Z,7.9
2017-09-16T04:08:36.937Z,7.9
2017-09-16T04:09:39.323Z,7.8
2017-09-16T04:10:41.711Z,7.8
2017-09-16T04:11:44.438Z,7.8
2017-09-16T04:12:46.837Z,7.8
2017-09-16T04:13:49.222Z,7.8
2017-09-16T04:14:51.607Z,7.8
2017-09-16T04:15:54.003Z,7.8
2017-09-16T04:16:56.397Z,7.8
2017-09-16T04:17:58.785Z,7.8
2017-09-16T04:19:01.174Z,7.8
2017-09-16T04:20:03.553Z,7.8
2017-09-16T04:21:05.938Z,7.8
2017-09-16T04:22:08.325Z,7.8
2017-09-16T04:23:10.716Z,7.8
2017-09-16T04:24:13.436Z,7.8
2017-09-16T04:25:16.171Z,7.7
2017-09-16T04:26:18.564Z,7.7
2017-09-16T04:27:20.961Z,7.7
2017-09-16T04:28:23.705Z,7.7
2017-09-16T04:29:26.475Z,7.7
2017-09-16T04:30:28.914Z,7.7
2017-09-16T04:31:31.346Z,7.7
2017-09-16T04:32:33.783Z,7.7
2017-09-16T04:33:36.226Z,7.7
2017-09-16T04:34:38.689Z,7.7
2017-09-16T04:35:41.141Z,7.7
2017-09-16T04:36:43.600Z,7.7
2017-09-16T04:37:46.059Z,7.7
2017-09-16T04:38:48.521Z,7.7
2017-09-16T04:39:50.967Z,7.7
2017-09-16T04:40:53.437Z,7.7
2017-09-16T04:41:56.230Z,7.6
2017-09-16T04:42:59.028Z,7.6
2017-09-16T04:44:01.474Z,7.6
2017-09-16T04:45:03.916Z,7.6
2017-09-16T04:46:06.384Z,7.6
2017-09-16T04:47:08.832Z,7.6
2017-09-16T04:48:11.288Z,7.6
2017-09-16T04:49:13.748Z,7.6
2017-09-16T04:50:16.194Z,7.6
2017-09-16T04:51:18.646Z,7.5
2017-09-16T04:52:21.443Z,7.6
2017-09-16T04:53:23.885Z,7.5
2017-09-16T04:54:26.341Z,7.5
2017-09-16T04:55:28.793Z,7.5
2017-09-16T04:56:32.269Z,7.5
2017-09-16T04:57:34.704Z,7.5
2017-09-16T04:58:37.149Z,7.5
2017-09-16T04:59:39.596Z,7.5
2017-09-16T05:00:42.043Z,7.5
2017-09-16T05:01:44.488Z,7.5
2017-09-16T05:02:47.265Z,7.5
2017-09-16T05:03:49.726Z,7.5
2017-09-16T05:04:52.172Z,7.6
2017-09-16T05:05:54.615Z,7.6
2017-09-16T05:06:57.057Z,7.6
2017-09-16T05:07:59.511Z,7.6
2017-09-16T05:09:01.967Z,7.6
2017-09-16T05:10:04.420Z,7.6
2017-09-16T05:11:06.856Z,7.6
2017-09-16T05:12:09.289Z,7.6
2017-09-16T05:13:11.745Z,7.6
2017-09-16T05:14:14.190Z,7.6
2017-09-16T05:15:16.654Z,7.6
2017-09-16T05:16:19.108Z,7.7
2017-09-16T05:17:21.545Z,7.7
2017-09-16T05:18:23.999Z,7.7
2017-09-16T05:19:26.458Z,7.7
2017-09-16T05:20:28.921Z,7.7
2017-09-16T05:21:31.369Z,7.7
2017-09-16T05:22:33.812Z,7.7
2017-09-16T05:23:36.261Z,7.7
2017-09-16T05:24:38.712Z,7.7
2017-09-16T05:25:41.163Z,7.8
2017-09-16T05:26:43.600Z,7.7
2017-09-16T05:27:46.052Z,7.8
2017-09-16T05:28:48.492Z,7.8
2017-09-16T05:29:50.945Z,7.8
2017-09-16T05:30:53.393Z,7.8
2017-09-16T05:31:55.884Z,7.8
2017-09-16T05:32:58.677Z,7.9
2017-09-16T05:34:01.136Z,7.9
2017-09-16T05:35:03.582Z,7.9
2017-09-16T05:36:06.358Z,7.9
2017-09-16T05:37:08.803Z,7.9
2017-09-16T05:38:11.452Z,7.9
2017-09-16T05:39:13.893Z,8
2017-09-16T05:40:16.338Z,8
2017-09-16T05:41:18.789Z,7.9
2017-09-16T05:42:21.228Z,8
2017-09-16T05:43:23.696Z,8
2017-09-16T05:44:26.144Z,8
2017-09-16T05:45:28.595Z,8
2017-09-16T05:46:31.037Z,8
2017-09-16T05:47:33.486Z,8
2017-09-16T05:48:36.040Z,8
2017-09-16T05:49:38.485Z,8
2017-09-16T05:50:40.934Z,8.1
2017-09-16T05:51:43.368Z,8.1
2017-09-16T05:52:45.812Z,8.1
2017-09-16T05:53:48.329Z,8.1
2017-09-16T05:54:50.768Z,8.1
2017-09-16T05:55:53.206Z,8.1
2017-09-16T05:56:55.651Z,8.1
2017-09-16T05:57:58.099Z,8.2
2017-09-16T05:59:00.625Z,8.2
2017-09-16T06:00:03.416Z,8.2
2017-09-16T06:01:05.852Z,8.3
2017-09-16T06:02:08.289Z,8.3
2017-09-16T06:03:10.731Z,8.3
2017-09-16T06:04:13.173Z,8.3
2017-09-16T06:05:15.617Z,8.4
2017-09-16T06:06:18.053Z,8.4
2017-09-16T06:07:20.485Z,8.4
2017-09-16T06:08:22.930Z,8.4
2017-09-16T06:09:25.437Z,8.4
2017-09-16T06:10:27.878Z,8.4
2017-09-16T06:11:30.318Z,8.4
2017-09-16T06:12:32.761Z,8.4
2017-09-16T06:13:35.208Z,8.5
2017-09-16T06:14:38.017Z,8.5
2017-09-16T06:15:40.444Z,8.5
2017-09-16T06:16:43.236Z,8.6
2017-09-16T06:17:45.668Z,8.6
2017-09-16T06:18:48.109Z,8.6
2017-09-16T06:19:50.552Z,8.6
2017-09-16T06:20:52.994Z,8.6
2017-09-16T06:21:55.438Z,8.6
2017-09-16T06:22:57.882Z,8.7
2017-09-16T06:24:00.328Z,8.7
2017-09-16T06:25:02.791Z,8.7
2017-09-16T06:26:05.232Z,8.8
2017-09-16T06:27:07.678Z,8.8
2017-09-16T06:28:10.121Z,8.8
2017-09-16T06:29:12.564Z,8.8
2017-09-16T06:30:15.009Z,8.9
2017-09-16T06:31:17.457Z,8.9
2017-09-16T06:32:20.200Z,8.9
2017-09-16T06:33:22.589Z,8.9
2017-09-16T06:34:24.971Z,9
2017-09-16T06:35:27.371Z,9
2017-09-16T06:36:29.760Z,9.1
2017-09-16T06:37:32.157Z,9.1
2017-09-16T06:38:34.563Z,9.1
2017-09-16T06:39:36.960Z,9.1
2017-09-16T06:40:39.709Z,9.2
2017-09-16T06:41:42.117Z,9.2
2017-09-16T06:42:44.495Z,9.3
2017-09-16T06:43:46.909Z,9.3
2017-09-16T06:44:49.319Z,9.3
2017-09-16T06:45:51.708Z,9.4
2017-09-16T06:46:54.099Z,9.4
2017-09-16T06:47:56.484Z,9.4
2017-09-16T06:48:58.875Z,9.5
2017-09-16T06:50:01.968Z,9.5
2017-09-16T06:51:04.368Z,9.5
2017-09-16T06:52:06.771Z,9.5
2017-09-16T06:53:09.183Z,9.6
2017-09-16T06:54:11.580Z,9.7
2017-09-16T06:55:13.995Z,9.7
2017-09-16T06:56:16.396Z,9.7
2017-09-16T06:57:18.829Z,9.8
2017-09-16T06:58:21.217Z,9.8
2017-09-16T06:59:23.617Z,9.8
2017-09-16T07:00:26.046Z,9.9
2017-09-16T07:01:28.476Z,9.9
2017-09-16T07:02:30.886Z,9.9
2017-09-16T07:03:33.617Z,9.9
2017-09-16T07:04:36.006Z,9.9
2017-09-16T07:05:38.409Z,9.9
2017-09-16T07:06:40.810Z,10
2017-09-16T07:07:43.213Z,10.1
2017-09-16T07:08:45.612Z,10.1
2017-09-16T07:09:48.010Z,10.2
2017-09-16T07:10:50.403Z,10.2
2017-09-16T07:11:52.810Z,10.3
2017-09-16T07:12:55.205Z,10.3
2017-09-16T07:13:57.600Z,10.3
2017-09-16T07:15:00.349Z,10.3
2017-09-16T07:16:02.754Z,10.3
2017-09-16T07:17:05.145Z,10.4
2017-09-16T07:18:07.548Z,10.4
2017-09-16T07:19:10.285Z,10.5
2017-09-16T07:20:12.695Z,10.4
2017-09-16T07:21:15.092Z,10.4
2017-09-16T07:22:17.832Z,10.4
2017-09-16T07:23:20.231Z,10.4
2017-09-16T07:24:22.620Z,10.4
2017-09-16T07:25:25.012Z,10.4
2017-09-16T07:26:27.401Z,10.5
2017-09-16T07:27:30.134Z,10.6
2017-09-16T07:28:32.521Z,10.6
2017-09-16T07:29:34.928Z,10.6
2017-09-16T07:30:37.326Z,10.7
2017-09-16T07:31:39.718Z,10.7
2017-09-16T07:32:42.104Z,10.8
2017-09-16T07:33:44.502Z,10.9
2017-09-16T07:34:47.230Z,10.9
2017-09-16T07:35:49.621Z,10.9
2017-09-16T07:36:52.353Z,10.9
2017-09-16T07:37:55.080Z,11.1
2017-09-16T07:38:57.472Z,11.1
2017-09-16T07:39:59.876Z,11.2
2017-09-16T07:41:02.265Z,11.3
2017-09-16T07:42:04.652Z,11.4
2017-09-16T07:43:07.043Z,11.4
2017-09-16T07:44:09.432Z,11.5
2017-09-16T07:45:11.830Z,11.5
2017-09-16T07:46:14.223Z,11.5
2017-09-16T07:47:16.603Z,11.4
2017-09-16T07:48:19.008Z,11.4
2017-09-16T07:49:21.596Z,11.4
2017-09-16T07:50:23.987Z,11.5
2017-09-16T07:51:26.384Z,11.6
2017-09-16T07:52:28.773Z,11.7
2017-09-16T07:53:31.160Z,11.7
2017-09-16T07:54:33.562Z,11.8
2017-09-16T07:55:35.958Z,11.8
2017-09-16T07:56:38.350Z,11.8
2017-09-16T07:57:40.772Z,11.7
2017-09-16T07:58:43.143Z,11.8
2017-09-16T07:59:45.542Z,11.8
2017-09-16T08:00:47.937Z,11.9
2017-09-16T08:01:50.333Z,11.8
2017-09-16T08:02:52.721Z,11.9
2017-09-16T08:03:55.112Z,12
2017-09-16T08:04:57.498Z,12.1
2017-09-16T08:05:59.895Z,12.3
2017-09-16T08:07:02.289Z,12.4
2017-09-16T08:08:05.016Z,12.6
2017-09-16T08:09:07.409Z,12.8
2017-09-16T08:10:09.803Z,12.9
2017-09-16T08:11:12.204Z,13.1
2017-09-16T08:12:14.606Z,13.2
2017-09-16T08:13:16.995Z,13.3
2017-09-16T08:14:19.393Z,13.4
2017-09-16T08:15:21.783Z,13.4
2017-09-16T08:16:24.178Z,13.2
2017-09-16T08:17:26.580Z,13.2
2017-09-16T08:18:29.326Z,13.3
2017-09-16T08:19:32.051Z,13.4
2017-09-16T08:20:34.816Z,13.6
2017-09-16T08:21:37.209Z,14
2017-09-16T08:22:39.609Z,14
2017-09-16T08:23:42.003Z,13.8
2017-09-16T08:24:44.397Z,13.7
2017-09-16T08:25:46.794Z,13.7
2017-09-16T08:26:49.185Z,14
2017-09-16T08:27:51.578Z,14
2017-09-16T08:28:53.971Z,14.1
2017-09-16T08:29:56.368Z,14
2017-09-16T08:30:58.762Z,14.1
2017-09-16T08:32:01.156Z,14.2
2017-09-16T08:33:03.560Z,14.2
2017-09-16T08:34:05.949Z,14
2017-09-16T08:35:08.349Z,13.9
2017-09-16T08:36:10.749Z,14.1
2017-09-16T08:37:13.148Z,14.1
2017-09-16T08:38:15.547Z,14.3
2017-09-16T08:39:17.942Z,14.3
2017-09-16T08:40:20.350Z,14.6
2017-09-16T08:41:22.747Z,14.7
2017-09-16T08:42:25.150Z,14.8
2017-09-16T08:43:27.545Z,14.7
2017-09-16T08:44:30.285Z,14.9
2017-09-16T08:45:32.687Z,15
2017-09-16T08:46:35.074Z,15.1
2017-09-16T08:47:37.480Z,15.2
2017-09-16T08:48:40.244Z,14.9
2017-09-16T08:49:42.645Z,14.9
2017-09-16T08:50:45.051Z,15.1
2017-09-16T08:51:47.450Z,15
2017-09-16T08:52:49.858Z,14.9
2017-09-16T08:53:52.619Z,15.1
2017-09-16T08:54:55.020Z,15.1
2017-09-16T08:55:57.412Z,15.2
2017-09-16T08:56:59.817Z,15.1
2017-09-16T08:58:02.213Z,15.3
2017-09-16T08:59:04.615Z,15.5
2017-09-16T09:00:07.011Z,15.7
2017-09-16T09:01:09.411Z,15.5
2017-09-16T09:02:11.815Z,15.7
2017-09-16T09:03:14.214Z,16
2017-09-16T09:04:16.960Z,15.9
2017-09-16T09:05:19.372Z,15.8
2017-09-16T09:06:21.770Z,16
2017-09-16T09:07:24.175Z,16.2
2017-09-16T09:08:26.571Z,16.3
2017-09-16T09:09:28.975Z,16
2017-09-16T09:10:31.391Z,16.3
2017-09-16T09:11:33.794Z,16.3
2017-09-16T09:12:36.201Z,16.1
2017-09-16T09:13:38.605Z,16
2017-09-16T09:14:41.006Z,15.6
2017-09-16T09:15:43.405Z,15.7
2017-09-16T09:16:45.810Z,15.6
2017-09-16T09:17:48.215Z,15.7
2017-09-16T09:18:50.616Z,15.9
2017-09-16T09:19:53.033Z,15.8
2017-09-16T09:20:55.426Z,16
2017-09-16T09:21:57.831Z,16.3
2017-09-16T09:23:00.235Z,16.3
2017-09-16T09:24:02.635Z,16.4
2017-09-16T09:25:05.038Z,16.7
2017-09-16T09:26:07.442Z,16.6
2017-09-16T09:27:09.840Z,16.6
2017-09-16T09:28:12.247Z,16.5
2017-09-16T09:29:14.655Z,16.2
2017-09-16T09:30:17.401Z,16
2017-09-16T09:31:19.799Z,15.8
2017-09-16T09:32:22.207Z,15.8
2017-09-16T09:33:24.614Z,15.7
2017-09-16T09:34:27.009Z,15.5
2017-09-16T09:35:29.421Z,15.5
2017-09-16T09:36:31.815Z,15.4
2017-09-16T09:37:34.219Z,15.6
2017-09-16T09:38:36.617Z,15.4
2017-09-16T09:39:39.369Z,15.9
2017-09-16T09:40:42.105Z,15.9
2017-09-16T09:41:44.517Z,15.8
2017-09-16T09:42:46.910Z,15.7
2017-09-16T09:43:49.320Z,15.6
2017-09-16T09:44:51.728Z,15.7
2017-09-16T09:45:54.127Z,15.6
2017-09-16T09:46:56.531Z,15.3
2017-09-16T09:47:58.945Z,15.2
2017-09-16T09:49:01.341Z,15.1
2017-09-16T09:50:04.093Z,15.1
2017-09-16T09:51:06.486Z,15.1
2017-09-16T09:52:08.889Z,15
2017-09-16T09:53:11.305Z,15.2
2017-09-16T09:54:13.719Z,15.6
2017-09-16T09:55:16.132Z,15.7
2017-09-16T09:56:18.545Z,16
2017-09-16T09:57:20.964Z,16.1
2017-09-16T09:58:23.370Z,16
2017-09-16T09:59:26.110Z,16
2017-09-16T10:00:28.513Z,16
2017-09-16T10:01:30.923Z,15.9
2017-09-16T10:02:33.358Z,15.9
2017-09-16T10:03:35.748Z,16
2017-09-16T10:04:38.164Z,15.8
2017-09-16T10:05:40.563Z,15.8
2017-09-16T10:06:42.963Z,15.7
2017-09-16T10:07:45.360Z,15.5
2017-09-16T10:08:48.099Z,15.4
2017-09-16T10:09:50.491Z,15.3
2017-09-16T10:10:53.241Z,15.4
2017-09-16T10:11:55.664Z,15.4
2017-09-16T10:12:58.087Z,15.5
2017-09-16T10:14:00.495Z,15.6
2017-09-16T10:15:02.892Z,15.8
2017-09-16T10:16:05.291Z,16.1
2017-09-16T10:17:07.718Z,16.5
2017-09-16T10:18:10.471Z,16.8
2017-09-16T10:19:12.874Z,16.7
2017-09-16T10:20:15.275Z,16.6
2017-09-16T10:21:17.677Z,16.4
2017-09-16T10:22:20.078Z,16.2
2017-09-16T10:23:22.495Z,16.6
2017-09-16T10:24:24.885Z,16.7
2017-09-16T10:25:27.632Z,16.6
2017-09-16T10:26:30.037Z,16.5
2017-09-16T10:27:32.783Z,16.3
2017-09-16T10:28:35.871Z,16.2
2017-09-16T10:29:38.295Z,16.4
2017-09-16T10:30:40.701Z,16.8
2017-09-16T10:31:43.808Z,16.8
2017-09-16T10:32:46.209Z,16.7
2017-09-16T10:33:48.616Z,16.8
2017-09-16T10:34:51.000Z,17.2
2017-09-16T10:35:53.418Z,17.4
2017-09-16T10:36:55.816Z,17.6
2017-09-16T10:37:58.560Z,17.8
2017-09-16T10:39:00.954Z,17.8
2017-09-16T10:40:03.361Z,18
2017-09-16T10:41:05.761Z,18.2
2017-09-16T10:42:08.179Z,18.1
2017-09-16T10:43:10.574Z,18.2
2017-09-16T10:44:12.980Z,18.4
2017-09-16T10:45:15.428Z,18.6
2017-09-16T10:46:18.561Z,18.9
2017-09-16T10:47:20.964Z,18.8
2017-09-16T10:48:23.402Z,18.8
2017-09-16T10:49:25.820Z,19
2017-09-16T10:50:28.238Z,19
2017-09-16T10:51:30.649Z,18.7
2017-09-16T10:52:33.051Z,18.3
2017-09-16T10:53:35.450Z,18.1
2017-09-16T10:54:37.860Z,17.9
2017-09-16T10:55:40.260Z,17.6
2017-09-16T10:56:42.669Z,17.6
2017-09-16T10:57:45.075Z,17.5
2017-09-16T10:58:47.484Z,17.5
2017-09-16T10:59:49.890Z,17.5
2017-09-16T11:00:52.645Z,17.7
2017-09-16T11:01:55.052Z,17.6
2017-09-16T11:02:57.473Z,17.4
2017-09-16T11:03:59.874Z,17.3
2017-09-16T11:05:02.288Z,17.4
2017-09-16T11:06:04.687Z,17.4
2017-09-16T11:07:07.436Z,17.5
2017-09-16T11:08:09.867Z,17.5
2017-09-16T11:09:12.259Z,17.8
2017-09-16T11:10:14.658Z,17.8
2017-09-16T11:11:17.066Z,18.1
2017-09-16T11:12:19.836Z,18.4
2017-09-16T11:13:22.256Z,18.6
2017-09-16T11:14:24.651Z,18.5
2017-09-16T11:15:27.410Z,18.4
2017-09-16T11:16:29.809Z,18.7
2017-09-16T11:17:32.223Z,18.9
2017-09-16T11:18:34.629Z,18.6
2017-09-16T11:19:37.370Z,18.7
2017-09-16T11:20:39.786Z,18.6
2017-09-16T11:21:42.205Z,18.4
2017-09-16T11:22:44.942Z,18.3
2017-09-16T11:23:47.374Z,18
2017-09-16T11:24:49.803Z,17.8
2017-09-16T11:25:52.214Z,17.9
2017-09-16T11:26:54.675Z,18.2
2017-09-16T11:27:57.080Z,18.1
2017-09-16T11:28:59.495Z,18
2017-09-16T11:30:01.911Z,18.4
2017-09-16T11:31:04.303Z,18.4
2017-09-16T11:32:06.709Z,18.5
2017-09-16T11:33:09.113Z,18.6
2017-09-16T11:34:11.870Z,18.9
2017-09-16T11:35:14.294Z,19.4
2017-09-16T11:36:16.697Z,19.4
2017-09-16T11:37:19.103Z,19.4
2017-09-16T11:38:21.864Z,19.5
2017-09-16T11:39:24.269Z,19.1
2017-09-16T11:40:26.719Z,19
2017-09-16T11:41:29.161Z,19.1
2017-09-16T11:42:31.570Z,19.3
2017-09-16T11:43:33.986Z,18.8
2017-09-16T11:44:36.405Z,18.9
2017-09-16T11:45:38.800Z,18.7
2017-09-16T11:46:41.217Z,18.6
2017-09-16T11:47:43.663Z,18.6
2017-09-16T11:48:46.074Z,19
2017-09-16T11:49:48.482Z,19.1
2017-09-16T11:50:50.886Z,19.3
2017-09-16T11:51:53.288Z,19.3
2017-09-16T11:52:55.708Z,19.4
2017-09-16T11:53:58.486Z,19.1
2017-09-16T11:55:00.895Z,18.9
2017-09-16T11:56:03.297Z,18.6
2017-09-16T11:57:06.042Z,18.4
2017-09-16T11:58:08.446Z,18.6
2017-09-16T11:59:10.845Z,19
2017-09-16T12:00:13.252Z,19
2017-09-16T12:01:15.661Z,18.8
2017-09-16T12:02:18.408Z,18.5
2017-09-16T12:03:20.809Z,18.7
2017-09-16T12:04:23.550Z,18.5
2017-09-16T12:05:25.960Z,18.3
2017-09-16T12:06:28.364Z,18
2017-09-16T12:07:30.771Z,18
2017-09-16T12:08:33.179Z,18
2017-09-16T12:09:35.582Z,17.9
2017-09-16T12:10:37.989Z,17.9
2017-09-16T12:11:40.390Z,17.8
2017-09-16T12:12:42.795Z,17.6
2017-09-16T12:13:45.560Z,17.6
2017-09-16T12:14:47.960Z,17.4
2017-09-16T12:15:50.357Z,17.1
2017-09-16T12:16:52.760Z,17
2017-09-16T12:17:55.383Z,17.2
2017-09-16T12:18:57.787Z,17.4
2017-09-16T12:20:00.195Z,18
2017-09-16T12:21:02.605Z,18.1
2017-09-16T12:22:05.009Z,18.4
2017-09-16T12:23:07.425Z,18.6
2017-09-16T12:24:09.827Z,18.7
2017-09-16T12:25:12.223Z,18.5
2017-09-16T12:26:14.626Z,18.2
2017-09-16T12:27:17.037Z,18.2
2017-09-16T12:28:19.437Z,18
2017-09-16T12:29:21.839Z,18
2017-09-16T12:30:24.479Z,18.2
2017-09-16T12:32:18.233Z,18.4
2017-09-16T12:33:20.690Z,18.8
2017-09-16T12:34:23.150Z,18.9
2017-09-16T12:35:25.609Z,18.8
2017-09-16T12:36:28.069Z,18.9
2017-09-16T12:37:30.524Z,19.2
2017-09-16T12:38:33.180Z,19.2
2017-09-16T12:39:35.635Z,19.5
2017-09-16T12:40:38.097Z,19.4
2017-09-16T12:41:40.555Z,19.5
2017-09-16T12:42:43.025Z,19.6
2017-09-16T12:43:45.822Z,19.6
2017-09-16T12:44:48.283Z,19.5
2017-09-16T12:45:50.739Z,19.6
2017-09-16T12:46:53.205Z,19.8
2017-09-16T12:47:56.021Z,19.9
2017-09-16T12:48:58.491Z,19.9
2017-09-16T12:50:00.942Z,19.8
2017-09-16T12:51:03.402Z,20
2017-09-16T12:52:05.863Z,20
2017-09-16T12:53:08.323Z,19.8
2017-09-16T12:54:10.786Z,19.8
2017-09-16T12:55:13.250Z,20
2017-09-16T12:56:15.705Z,20
2017-09-16T12:57:18.162Z,20
2017-09-16T12:58:20.626Z,20
2017-09-16T12:59:23.089Z,19.9
2017-09-16T13:00:25.557Z,19.7
2017-09-16T13:01:28.044Z,19.3
2017-09-16T13:02:30.860Z,19.7
2017-09-16T13:03:33.315Z,19.8
2017-09-16T13:04:35.787Z,20
2017-09-16T13:05:38.241Z,20.3
2017-09-16T13:06:40.707Z,20.3
2017-09-16T13:07:43.165Z,20.3
2017-09-16T13:08:45.627Z,20.5
2017-09-16T13:09:48.089Z,20.3
2017-09-16T13:10:50.554Z,20.2
2017-09-16T13:11:53.019Z,20.2
2017-09-16T13:12:55.832Z,20.3
2017-09-16T13:13:58.294Z,20.4
2017-09-16T13:15:00.761Z,20.5
2017-09-16T13:16:03.218Z,20.4
2017-09-16T13:17:05.680Z,20.1
2017-09-16T13:18:08.142Z,19.9
2017-09-16T13:19:10.617Z,19.5
2017-09-16T13:20:13.080Z,19.5
2017-09-16T13:21:15.541Z,19.5
2017-09-16T13:22:18.001Z,19.3
2017-09-16T13:23:20.473Z,19.2
2017-09-16T13:24:22.934Z,18.9
2017-09-16T13:25:25.394Z,19
2017-09-16T13:26:28.198Z,19.1
2017-09-16T13:27:30.670Z,19.1
2017-09-16T13:28:33.463Z,19.2
2017-09-16T13:29:35.925Z,18.9
2017-09-16T13:30:38.393Z,18.8
2017-09-16T13:31:40.853Z,18.4
2017-09-16T13:32:43.313Z,18.7
2017-09-16T13:33:46.128Z,18.5
2017-09-16T13:34:48.584Z,18.4
2017-09-16T13:35:51.050Z,18
2017-09-16T13:36:53.513Z,18.2
2017-09-16T13:37:55.960Z,18
2017-09-16T13:38:58.423Z,18.1
2017-09-16T13:40:00.885Z,18.1
2017-09-16T13:41:03.346Z,18.3
2017-09-16T13:42:05.810Z,18
2017-09-16T13:43:08.280Z,18
2017-09-16T13:44:10.737Z,17.9
2017-09-16T13:45:13.540Z,17.8
2017-09-16T13:46:16.345Z,17.9
2017-09-16T13:47:18.794Z,17.9
2017-09-16T13:48:21.265Z,17.9
2017-09-16T13:49:24.068Z,17.5
2017-09-16T13:50:26.524Z,17.5
2017-09-16T13:51:28.992Z,17.5
2017-09-16T13:52:31.794Z,17.5
2017-09-16T13:53:34.253Z,17.6
2017-09-16T13:54:36.716Z,17.7
2017-09-16T13:55:39.167Z,17.8
2017-09-16T13:56:41.628Z,17.7
2017-09-16T13:57:44.087Z,17.7
2017-09-16T13:58:46.546Z,17.7
2017-09-16T13:59:49.005Z,17.7
2017-09-16T14:00:51.467Z,17.6
2017-09-16T14:01:54.264Z,17.5
2017-09-16T14:02:56.736Z,17.4
2017-09-16T14:03:59.192Z,17.3
2017-09-16T14:05:02.002Z,17.4
2017-09-16T14:06:04.804Z,17.4
2017-09-16T14:07:07.265Z,17.4
2017-09-16T14:08:10.065Z,17.2
2017-09-16T14:09:12.524Z,17.1
2017-09-16T14:10:14.975Z,17.1
2017-09-16T14:11:17.437Z,17.2
2017-09-16T14:12:20.235Z,17
2017-09-16T14:13:22.685Z,17.1